Deo Volente — PHFJ — position and weather

sailwx.info

Track history (hours):
 
Tides and Currents Weather Stations Pressure Air Temp Water Temp Dewpoint Dewpoint Depression Visibility Wind Speed Wind Dir Waves Ship Positions

Deo Volente

Last reported at 2017-Sep-20 18:55 UTC. Time now 2017-Sep-26 04:07 UTC.
Position N 40°39' E 014°01'.

Length 105 m; draft 5.2 m.

Type: Cargo ship. MMSI: 246518000.

Date/timePositionNaut miles runAvg speedWind from/ knotsBaromVisibWave heightAir tempDewpointWater temp
2017-Sep-20 18:55N 40°39' E 014°01'614.5
2017-Sep-20 18:30N 40°43' E 014°08'714.5
2017-Sep-20 18:01N 40°47' E 014°15'3 6.9
2017-Sep-20 17:31N 40°50' E 014°17'88 4.7
2017-Sep-19 22:40N 39°28' E 014°59'417.0
2017-Sep-19 22:27N 39°25' E 015°01'1916.9
2017-Sep-19 21:21N 39°08' E 015°11'616.8
2017-Sep-19 20:59N 39°02' E 015°14'917.1
2017-Sep-19 20:29N 38°54' E 015°18'817.5
2017-Sep-19 20:00N 38°47' E 015°23'917.5
2017-Sep-19 19:30N 38°39' E 015°28'917.3
2017-Sep-19 19:00N 38°31' E 015°33'917.1
2017-Sep-19 18:30N 38°24' E 015°38'816.7
2017-Sep-19 18:00N 38°16' E 015°42'713.6
2017-Sep-19 17:31N 38°10' E 015°37'816.3
2017-Sep-19 17:00N 38°02' E 015°36'816.5
2017-Sep-19 16:30N 37°54' E 015°40'816.4
2017-Sep-19 15:59N 37°51' E 015°50'1018.2
2017-Sep-19 15:27N 37°49' E 016°02'35516.6
2017-Sep-18 18:00N 36°33' E 023°18'1917.1
2017-Sep-18 16:53N 36°50' E 023°31'717.1
2017-Sep-18 16:30N 36°56' E 023°34'917.1
2017-Sep-18 16:00N 37°04' E 023°37'816.7
2017-Sep-18 15:30N 37°12' E 023°39'816.4
2017-Sep-18 15:00N 37°20' E 023°41'816.4
2017-Sep-18 14:30N 37°28' E 023°43'816.4
2017-Sep-18 14:00N 37°36' E 023°43'816.8
2017-Sep-18 13:30N 37°44' E 023°40'816.6
2017-Sep-18 13:00N 37°52' E 023°37'611.4
2017-Sep-18 12:31N 37°57' E 023°33'5 9.5
2017-Sep-18 12:00N 38°02' E 023°32'0 0.0
2017-Sep-18 11:30N 38°02' E 023°32'0 0.0
2017-Sep-18 11:00N 38°02' E 023°32'0 0.0
2017-Sep-18 10:30N 38°02' E 023°32'0 0.0
2017-Sep-18 10:00N 38°02' E 023°32'0 0.0
2017-Sep-18 09:31N 38°02' E 023°32'0 0.0
2017-Sep-18 09:00N 38°02' E 023°32'0 0.0
2017-Sep-18 08:30N 38°02' E 023°32'0 0.0
2017-Sep-18 08:00N 38°02' E 023°32'0 0.0
2017-Sep-18 07:30N 38°02' E 023°32'0 0.0
2017-Sep-18 06:59N 38°02' E 023°32'0 0.0
2017-Sep-18 06:30N 38°02' E 023°32'0 0.0
2017-Sep-18 06:00N 38°02' E 023°32'0 0.0
2017-Sep-18 05:30N 38°02' E 023°32'0 0.0
2017-Sep-18 05:00N 38°02' E 023°32'0 0.0
2017-Sep-18 04:30N 38°02' E 023°32'0 0.0
2017-Sep-18 04:01N 38°02' E 023°32'0 0.0
2017-Sep-18 03:30N 38°02' E 023°32'0 0.0
2017-Sep-18 03:00N 38°02' E 023°32'0 0.0
2017-Sep-18 02:30N 38°02' E 023°32'0 0.0
2017-Sep-18 02:01N 38°02' E 023°32'0 0.0
2017-Sep-18 01:30N 38°02' E 023°32'0 0.0
2017-Sep-18 01:01N 38°02' E 023°32'0 0.0
2017-Sep-18 00:30N 38°02' E 023°32'0 0.0
2017-Sep-18 00:00N 38°02' E 023°32'0 0.0
2017-Sep-17 23:30N 38°02' E 023°32'0 0.0
2017-Sep-17 23:00N 38°02' E 023°32'0 0.0
2017-Sep-17 22:30N 38°02' E 023°32'0 0.0
2017-Sep-17 22:00N 38°02' E 023°32'0 0.0
2017-Sep-17 21:30N 38°02' E 023°32'0 0.0
2017-Sep-17 21:01N 38°02' E 023°32'0 0.0
2017-Sep-17 20:30N 38°02' E 023°32'0 0.0
2017-Sep-17 20:00N 38°02' E 023°32'0 0.0
2017-Sep-17 19:30N 38°02' E 023°32'0 0.0
2017-Sep-17 19:00N 38°02' E 023°32'0 0.0
2017-Sep-17 18:30N 38°02' E 023°32'0 0.0
2017-Sep-17 18:00N 38°02' E 023°32'0 0.0
2017-Sep-17 17:31N 38°02' E 023°32'0 0.0
2017-Sep-17 17:00N 38°02' E 023°32'0 0.0
2017-Sep-17 16:30N 38°02' E 023°32'0 0.0
2017-Sep-17 16:00N 38°02' E 023°32'0 0.0
2017-Sep-17 15:30N 38°02' E 023°32'0 0.0
2017-Sep-17 15:00N 38°02' E 023°32'0 0.0
2017-Sep-17 14:30N 38°02' E 023°32'0 0.0
2017-Sep-17 14:00N 38°02' E 023°32'0 0.0
2017-Sep-17 13:31N 38°02' E 023°32'2 3.1
2017-Sep-17 13:00N 38°01' E 023°33'611.5
2017-Sep-17 12:30N 37°56' E 023°36'1 2.8
2017-Sep-17 12:01N 37°54' E 023°36'714.0
2017-Sep-17 11:30N 37°51' E 023°28'815.6
2017-Sep-17 11:00N 37°52' E 023°18'815.8
2017-Sep-17 10:30N 37°53' E 023°09'23 6.7
2017-Sep-17 07:08N 38°05' E 022°44'715.7
2017-Sep-17 06:43N 38°08' E 022°37'315.8
2017-Sep-17 06:30N 38°10' E 022°33'6514.5
2017-Sep-17 01:59N 38°13' E 021°10'1415.5
2017-Sep-17 01:03N 38°19' E 020°53'117.2
2017-Sep-17 01:01N 38°20' E 020°53'917.1
2017-Sep-17 00:30N 38°27' E 020°47'816.4
2017-Sep-17 00:00N 38°32' E 020°38'817.1
2017-Sep-16 23:31N 38°33' E 020°27'917.6
2017-Sep-16 23:00N 38°40' E 020°20'917.9
2017-Sep-16 22:30N 38°46' E 020°12'917.8
2017-Sep-16 22:00N 38°53' E 020°05'917.7
2017-Sep-16 21:31N 39°00' E 019°58'917.6
2017-Sep-16 21:01N 39°07' E 019°51'917.6
2017-Sep-16 20:31N 39°14' E 019°44'917.4
2017-Sep-16 20:01N 39°20' E 019°36'1717.0
2017-Sep-16 19:01N 39°33' E 019°22'016.4
2017-Sep-16 19:00N 39°33' E 019°22'916.9
2017-Sep-16 18:30N 39°40' E 019°15'1017.3
2017-Sep-16 17:55N 39°48' E 019°07'717.4
2017-Sep-16 17:30N 39°53' E 019°01'917.6
2017-Sep-16 17:00N 40°00' E 018°54'917.5
2017-Sep-16 16:30N 40°07' E 018°46'917.4
2017-Sep-16 16:00N 40°14' E 018°39'917.4
2017-Sep-16 15:30N 40°21' E 018°32'917.3
2017-Sep-16 14:59N 40°27' E 018°24'817.0
2017-Sep-16 14:29N 40°34' E 018°17'27116.9
2017-Sep-15 22:27N 43°56' E 014°13'2117.0
2017-Sep-15 21:14N 44°12' E 013°55'917.0
2017-Sep-15 20:43N 44°20' E 013°48'316.7
2017-Sep-15 20:30N 44°23' E 013°46'1016.8
2017-Sep-15 19:55N 44°31' E 013°39'716.9
2017-Sep-15 19:31N 44°37' E 013°34'816.9
2017-Sep-15 19:01N 44°44' E 013°28'917.3
2017-Sep-15 18:30N 44°52' E 013°21'917.2
2017-Sep-15 18:00N 44°59' E 013°15'917.1
2017-Sep-15 17:30N 45°06' E 013°08'816.9
2017-Sep-15 17:01N 45°14' E 013°05'917.1
2017-Sep-15 16:31N 45°23' E 013°04'917.6
2017-Sep-15 16:00N 45°29' E 013°12'917.5
2017-Sep-15 15:31N 45°34' E 013°22'917.5
2017-Sep-15 15:00N 45°38' E 013°34'714.3
2017-Sep-15 14:30N 45°38' E 013°44'3 6.7
2017-Sep-15 14:00N 45°37' E 013°49'0 0.0
2017-Sep-15 13:30N 45°37' E 013°49'0 0.0
2017-Sep-15 13:00N 45°37' E 013°49'0 0.0
2017-Sep-15 12:30N 45°37' E 013°49'0 0.0
2017-Sep-15 07:59N 45°37' E 013°49'0 0.0
2017-Sep-15 07:31N 45°37' E 013°49'0 0.0
2017-Sep-15 07:01N 45°37' E 013°49'0 0.0
2017-Sep-15 06:30N 45°37' E 013°49'0 0.0
2017-Sep-15 06:01N 45°37' E 013°49'1 3.0
2017-Sep-15 05:30N 45°36' E 013°46'4 7.8
2017-Sep-15 05:00N 45°39' E 013°42'2 4.8
2017-Sep-15 04:31N 45°38' E 013°39'2 4.8
2017-Sep-15 04:00N 45°37' E 013°36'3 5.1
2017-Sep-15 03:31N 45°35' E 013°33'3 5.5
2017-Sep-15 03:00N 45°34' E 013°30'3 5.4
2017-Sep-15 02:30N 45°33' E 013°26'3 5.3
2017-Sep-15 02:01N 45°32' E 013°23'3 5.5
2017-Sep-15 01:30N 45°30' E 013°19'2 5.0
2017-Sep-15 01:00N 45°30' E 013°16'3 5.1
2017-Sep-15 00:31N 45°29' E 013°13'3 5.1
2017-Sep-15 00:00N 45°28' E 013°09'2 4.9
2017-Sep-14 23:30N 45°27' E 013°06'3 5.1
2017-Sep-14 23:00N 45°25' E 013°03'3 5.3
2017-Sep-14 22:30N 45°24' E 012°59'3 5.2
2017-Sep-14 22:01N 45°23' E 012°56'3 5.1
2017-Sep-14 21:31N 45°22' E 012°53'2 4.6
2017-Sep-14 21:01N 45°21' E 012°50'2 5.0
2017-Sep-14 20:31N 45°19' E 012°47'3 5.1
2017-Sep-14 20:01N 45°18' E 012°44'3 5.1
2017-Sep-14 19:30N 45°17' E 012°41'4 9.1
2017-Sep-14 19:00N 45°15' E 012°35'713.8
2017-Sep-14 18:30N 45°17' E 012°25'612.4
2017-Sep-14 18:01N 45°20' E 012°18'4 8.6
2017-Sep-14 17:30N 45°25' E 012°16'3 6.0
2017-Sep-14 17:00N 45°28' E 012°15'0 0.0
2017-Sep-14 16:30N 45°28' E 012°15'0 0.0
2017-Sep-14 16:00N 45°28' E 012°15'0 0.0
2017-Sep-14 15:31N 45°28' E 012°15'0 0.0
2017-Sep-14 15:01N 45°28' E 012°15'0 0.0
2017-Sep-14 14:31N 45°28' E 012°15'0 0.0
2017-Sep-14 14:01N 45°28' E 012°15'0 0.0
2017-Sep-14 13:30N 45°28' E 012°15'0 0.0
2017-Sep-14 13:01N 45°28' E 012°15'0 0.0
2017-Sep-14 12:30N 45°28' E 012°15'0 0.0
2017-Sep-14 12:00N 45°28' E 012°15'0 0.0
2017-Sep-14 11:30N 45°28' E 012°15'0 0.0
2017-Sep-14 11:01N 45°28' E 012°15'0 0.0
2017-Sep-14 10:31N 45°28' E 012°15'0 0.0
2017-Sep-14 10:00N 45°28' E 012°15'0 0.0
2017-Sep-14 09:30N 45°28' E 012°15'0 0.0
2017-Sep-14 09:00N 45°28' E 012°15'0 0.0
2017-Sep-14 08:30N 45°28' E 012°15'0 0.0
2017-Sep-14 08:00N 45°28' E 012°15'0 0.0
2017-Sep-14 07:30N 45°28' E 012°15'0 0.0
2017-Sep-14 07:01N 45°28' E 012°15'0 0.0
2017-Sep-14 06:30N 45°28' E 012°15'0 0.0
2017-Sep-14 06:00N 45°28' E 012°15'0 0.0
2017-Sep-14 05:28N 45°28' E 012°15'0 0.9
2017-Sep-14 05:00N 45°27' E 012°16'3 6.6
2017-Sep-14 04:30N 45°24' E 012°16'4 8.2
2017-Sep-14 04:01N 45°20' E 012°18'612.7
2017-Sep-14 03:30N 45°18' E 012°27'713.3
2017-Sep-14 03:00N 45°15' E 012°36'611.0
2017-Sep-14 02:30N 45°12' E 012°42'511.1
2017-Sep-14 02:00N 45°08' E 012°47'611.1
2017-Sep-14 01:30N 45°03' E 012°51'611.1
2017-Sep-14 00:59N 44°58' E 012°55'511.2
2017-Sep-14 00:30N 44°53' E 012°57'611.1
2017-Sep-14 00:00N 44°48' E 013°00'611.2
2017-Sep-13 23:30N 44°43' E 013°03'611.6
2017-Sep-13 23:00N 44°37' E 013°06'611.8
2017-Sep-13 22:30N 44°32' E 013°09'611.7
2017-Sep-13 22:00N 44°26' E 013°12'911.4
2017-Sep-13 21:13N 44°18' E 013°17'4011.3
2017-Sep-13 17:40N 43°52' E 013°59'211.6
2017-Sep-13 17:30N 43°51' E 014°02'811.5
2017-Sep-13 16:50N 43°46' E 014°10'611.6
2017-Sep-13 16:21N 43°42' E 014°16'412.1
2017-Sep-13 15:59N 43°40' E 014°21'611.9
2017-Sep-13 15:30N 43°36' E 014°27'611.6
2017-Sep-13 15:00N 43°32' E 014°33'57712.5
2017-Sep-11 16:43N 36°45' E 023°28'516.8
2017-Sep-11 16:26N 36°49' E 023°31'817.6
2017-Sep-11 16:00N 36°56' E 023°36'816.8
2017-Sep-11 15:30N 37°04' E 023°41'816.6
2017-Sep-11 15:00N 37°10' E 023°46'1216.3
2017-Sep-11 14:16N 37°21' E 023°54'  
Track history (hours):
 
Tides and Currents Weather Stations Pressure Air Temp Water Temp Dewpoint Dewpoint Depression Visibility Wind Speed Wind Dir Waves Ship Positions

Deo Volente

Last reported at 2017-Sep-20 18:55 UTC. Time now 2017-Sep-26 04:07 UTC.
Position N 40°39' E 014°01'.

Length 105 m; draft 5.2 m.

Type: Cargo ship. MMSI: 246518000.

Date/timePositionNaut miles runAvg speedWind from/ knotsBaromVisibWave heightAir tempDewpointWater temp
2017-Sep-20 18:55N 40°39' E 014°01'614.5
2017-Sep-20 18:30N 40°43' E 014°08'714.5
2017-Sep-20 18:01N 40°47' E 014°15'3 6.9
2017-Sep-20 17:31N 40°50' E 014°17'88 4.7
2017-Sep-19 22:40N 39°28' E 014°59'417.0
2017-Sep-19 22:27N 39°25' E 015°01'1916.9
2017-Sep-19 21:21N 39°08' E 015°11'616.8
2017-Sep-19 20:59N 39°02' E 015°14'917.1
2017-Sep-19 20:29N 38°54' E 015°18'817.5
2017-Sep-19 20:00N 38°47' E 015°23'917.5
2017-Sep-19 19:30N 38°39' E 015°28'917.3
2017-Sep-19 19:00N 38°31' E 015°33'917.1
2017-Sep-19 18:30N 38°24' E 015°38'816.7
2017-Sep-19 18:00N 38°16' E 015°42'713.6
2017-Sep-19 17:31N 38°10' E 015°37'816.3
2017-Sep-19 17:00N 38°02' E 015°36'816.5
2017-Sep-19 16:30N 37°54' E 015°40'816.4
2017-Sep-19 15:59N 37°51' E 015°50'1018.2
2017-Sep-19 15:27N 37°49' E 016°02'35516.6
2017-Sep-18 18:00N 36°33' E 023°18'1917.1
2017-Sep-18 16:53N 36°50' E 023°31'717.1
2017-Sep-18 16:30N 36°56' E 023°34'917.1
2017-Sep-18 16:00N 37°04' E 023°37'816.7
2017-Sep-18 15:30N 37°12' E 023°39'816.4
2017-Sep-18 15:00N 37°20' E 023°41'816.4
2017-Sep-18 14:30N 37°28' E 023°43'816.4
2017-Sep-18 14:00N 37°36' E 023°43'816.8
2017-Sep-18 13:30N 37°44' E 023°40'816.6
2017-Sep-18 13:00N 37°52' E 023°37'611.4
2017-Sep-18 12:31N 37°57' E 023°33'5 9.5
2017-Sep-18 12:00N 38°02' E 023°32'0 0.0
2017-Sep-18 11:30N 38°02' E 023°32'0 0.0
2017-Sep-18 11:00N 38°02' E 023°32'0 0.0
2017-Sep-18 10:30N 38°02' E 023°32'0 0.0
2017-Sep-18 10:00N 38°02' E 023°32'0 0.0
2017-Sep-18 09:31N 38°02' E 023°32'0 0.0
2017-Sep-18 09:00N 38°02' E 023°32'0 0.0
2017-Sep-18 08:30N 38°02' E 023°32'0 0.0
2017-Sep-18 08:00N 38°02' E 023°32'0 0.0
2017-Sep-18 07:30N 38°02' E 023°32'0 0.0
2017-Sep-18 06:59N 38°02' E 023°32'0 0.0
2017-Sep-18 06:30N 38°02' E 023°32'0 0.0
2017-Sep-18 06:00N 38°02' E 023°32'0 0.0
2017-Sep-18 05:30N 38°02' E 023°32'0 0.0
2017-Sep-18 05:00N 38°02' E 023°32'0 0.0
2017-Sep-18 04:30N 38°02' E 023°32'0 0.0
2017-Sep-18 04:01N 38°02' E 023°32'0 0.0
2017-Sep-18 03:30N 38°02' E 023°32'0 0.0
2017-Sep-18 03:00N 38°02' E 023°32'0 0.0
2017-Sep-18 02:30N 38°02' E 023°32'0 0.0
2017-Sep-18 02:01N 38°02' E 023°32'0 0.0
2017-Sep-18 01:30N 38°02' E 023°32'0 0.0
2017-Sep-18 01:01N 38°02' E 023°32'0 0.0
2017-Sep-18 00:30N 38°02' E 023°32'0 0.0
2017-Sep-18 00:00N 38°02' E 023°32'0 0.0
2017-Sep-17 23:30N 38°02' E 023°32'0 0.0
2017-Sep-17 23:00N 38°02' E 023°32'0 0.0
2017-Sep-17 22:30N 38°02' E 023°32'0 0.0
2017-Sep-17 22:00N 38°02' E 023°32'0 0.0
2017-Sep-17 21:30N 38°02' E 023°32'0 0.0
2017-Sep-17 21:01N 38°02' E 023°32'0 0.0
2017-Sep-17 20:30N 38°02' E 023°32'0 0.0
2017-Sep-17 20:00N 38°02' E 023°32'0 0.0
2017-Sep-17 19:30N 38°02' E 023°32'0 0.0
2017-Sep-17 19:00N 38°02' E 023°32'0 0.0
2017-Sep-17 18:30N 38°02' E 023°32'0 0.0
2017-Sep-17 18:00N 38°02' E 023°32'0 0.0
2017-Sep-17 17:31N 38°02' E 023°32'0 0.0
2017-Sep-17 17:00N 38°02' E 023°32'0 0.0
2017-Sep-17 16:30N 38°02' E 023°32'0 0.0
2017-Sep-17 16:00N 38°02' E 023°32'0 0.0
2017-Sep-17 15:30N 38°02' E 023°32'0 0.0
2017-Sep-17 15:00N 38°02' E 023°32'0 0.0
2017-Sep-17 14:30N 38°02' E 023°32'0 0.0
2017-Sep-17 14:00N 38°02' E 023°32'0 0.0
2017-Sep-17 13:31N 38°02' E 023°32'2 3.1
2017-Sep-17 13:00N 38°01' E 023°33'611.5
2017-Sep-17 12:30N 37°56' E 023°36'1 2.8
2017-Sep-17 12:01N 37°54' E 023°36'714.0
2017-Sep-17 11:30N 37°51' E 023°28'815.6
2017-Sep-17 11:00N 37°52' E 023°18'815.8
2017-Sep-17 10:30N 37°53' E 023°09'23 6.7
2017-Sep-17 07:08N 38°05' E 022°44'715.7
2017-Sep-17 06:43N 38°08' E 022°37'315.8
2017-Sep-17 06:30N 38°10' E 022°33'6514.5
2017-Sep-17 01:59N 38°13' E 021°10'1415.5
2017-Sep-17 01:03N 38°19' E 020°53'117.2
2017-Sep-17 01:01N 38°20' E 020°53'917.1
2017-Sep-17 00:30N 38°27' E 020°47'816.4
2017-Sep-17 00:00N 38°32' E 020°38'817.1
2017-Sep-16 23:31N 38°33' E 020°27'917.6
2017-Sep-16 23:00N 38°40' E 020°20'917.9
2017-Sep-16 22:30N 38°46' E 020°12'917.8
2017-Sep-16 22:00N 38°53' E 020°05'917.7
2017-Sep-16 21:31N 39°00' E 019°58'917.6
2017-Sep-16 21:01N 39°07' E 019°51'917.6
2017-Sep-16 20:31N 39°14' E 019°44'917.4
2017-Sep-16 20:01N 39°20' E 019°36'1717.0
2017-Sep-16 19:01N 39°33' E 019°22'016.4
2017-Sep-16 19:00N 39°33' E 019°22'916.9
2017-Sep-16 18:30N 39°40' E 019°15'1017.3
2017-Sep-16 17:55N 39°48' E 019°07'717.4
2017-Sep-16 17:30N 39°53' E 019°01'917.6
2017-Sep-16 17:00N 40°00' E 018°54'917.5
2017-Sep-16 16:30N 40°07' E 018°46'917.4
2017-Sep-16 16:00N 40°14' E 018°39'917.4
2017-Sep-16 15:30N 40°21' E 018°32'917.3
2017-Sep-16 14:59N 40°27' E 018°24'817.0
2017-Sep-16 14:29N 40°34' E 018°17'27116.9
2017-Sep-15 22:27N 43°56' E 014°13'2117.0
2017-Sep-15 21:14N 44°12' E 013°55'917.0
2017-Sep-15 20:43N 44°20' E 013°48'316.7
2017-Sep-15 20:30N 44°23' E 013°46'1016.8
2017-Sep-15 19:55N 44°31' E 013°39'716.9
2017-Sep-15 19:31N 44°37' E 013°34'816.9
2017-Sep-15 19:01N 44°44' E 013°28'917.3
2017-Sep-15 18:30N 44°52' E 013°21'917.2
2017-Sep-15 18:00N 44°59' E 013°15'917.1
2017-Sep-15 17:30N 45°06' E 013°08'816.9
2017-Sep-15 17:01N 45°14' E 013°05'917.1
2017-Sep-15 16:31N 45°23' E 013°04'917.6
2017-Sep-15 16:00N 45°29' E 013°12'917.5
2017-Sep-15 15:31N 45°34' E 013°22'917.5
2017-Sep-15 15:00N 45°38' E 013°34'714.3
2017-Sep-15 14:30N 45°38' E 013°44'3 6.7
2017-Sep-15 14:00N 45°37' E 013°49'0 0.0
2017-Sep-15 13:30N 45°37' E 013°49'0 0.0
2017-Sep-15 13:00N 45°37' E 013°49'0 0.0
2017-Sep-15 12:30N 45°37' E 013°49'0 0.0
2017-Sep-15 07:59N 45°37' E 013°49'0 0.0
2017-Sep-15 07:31N 45°37' E 013°49'0 0.0
2017-Sep-15 07:01N 45°37' E 013°49'0 0.0
2017-Sep-15 06:30N 45°37' E 013°49'0 0.0
2017-Sep-15 06:01N 45°37' E 013°49'1 3.0
2017-Sep-15 05:30N 45°36' E 013°46'4 7.8
2017-Sep-15 05:00N 45°39' E 013°42'2 4.8
2017-Sep-15 04:31N 45°38' E 013°39'2 4.8
2017-Sep-15 04:00N 45°37' E 013°36'3 5.1
2017-Sep-15 03:31N 45°35' E 013°33'3 5.5
2017-Sep-15 03:00N 45°34' E 013°30'3 5.4
2017-Sep-15 02:30N 45°33' E 013°26'3 5.3
2017-Sep-15 02:01N 45°32' E 013°23'3 5.5
2017-Sep-15 01:30N 45°30' E 013°19'2 5.0
2017-Sep-15 01:00N 45°30' E 013°16'3 5.1
2017-Sep-15 00:31N 45°29' E 013°13'3 5.1
2017-Sep-15 00:00N 45°28' E 013°09'2 4.9
2017-Sep-14 23:30N 45°27' E 013°06'3 5.1
2017-Sep-14 23:00N 45°25' E 013°03'3 5.3
2017-Sep-14 22:30N 45°24' E 012°59'3 5.2
2017-Sep-14 22:01N 45°23' E 012°56'3 5.1
2017-Sep-14 21:31N 45°22' E 012°53'2 4.6
2017-Sep-14 21:01N 45°21' E 012°50'2 5.0
2017-Sep-14 20:31N 45°19' E 012°47'3 5.1
2017-Sep-14 20:01N 45°18' E 012°44'3 5.1
2017-Sep-14 19:30N 45°17' E 012°41'4 9.1
2017-Sep-14 19:00N 45°15' E 012°35'713.8
2017-Sep-14 18:30N 45°17' E 012°25'612.4
2017-Sep-14 18:01N 45°20' E 012°18'4 8.6
2017-Sep-14 17:30N 45°25' E 012°16'3 6.0
2017-Sep-14 17:00N 45°28' E 012°15'0 0.0
2017-Sep-14 16:30N 45°28' E 012°15'0 0.0
2017-Sep-14 16:00N 45°28' E 012°15'0 0.0
2017-Sep-14 15:31N 45°28' E 012°15'0 0.0
2017-Sep-14 15:01N 45°28' E 012°15'0 0.0
2017-Sep-14 14:31N 45°28' E 012°15'0 0.0
2017-Sep-14 14:01N 45°28' E 012°15'0 0.0
2017-Sep-14 13:30N 45°28' E 012°15'0 0.0
2017-Sep-14 13:01N 45°28' E 012°15'0 0.0
2017-Sep-14 12:30N 45°28' E 012°15'0 0.0
2017-Sep-14 12:00N 45°28' E 012°15'0 0.0
2017-Sep-14 11:30N 45°28' E 012°15'0 0.0
2017-Sep-14 11:01N 45°28' E 012°15'0 0.0
2017-Sep-14 10:31N 45°28' E 012°15'0 0.0
2017-Sep-14 10:00N 45°28' E 012°15'0 0.0
2017-Sep-14 09:30N 45°28' E 012°15'0 0.0
2017-Sep-14 09:00N 45°28' E 012°15'0 0.0
2017-Sep-14 08:30N 45°28' E 012°15'0 0.0
2017-Sep-14 08:00N 45°28' E 012°15'0 0.0
2017-Sep-14 07:30N 45°28' E 012°15'0 0.0
2017-Sep-14 07:01N 45°28' E 012°15'0 0.0
2017-Sep-14 06:30N 45°28' E 012°15'0 0.0
2017-Sep-14 06:00N 45°28' E 012°15'0 0.0
2017-Sep-14 05:28N 45°28' E 012°15'0 0.9
2017-Sep-14 05:00N 45°27' E 012°16'3 6.6
2017-Sep-14 04:30N 45°24' E 012°16'4 8.2
2017-Sep-14 04:01N 45°20' E 012°18'612.7
2017-Sep-14 03:30N 45°18' E 012°27'713.3
2017-Sep-14 03:00N 45°15' E 012°36'611.0
2017-Sep-14 02:30N 45°12' E 012°42'511.1
2017-Sep-14 02:00N 45°08' E 012°47'611.1
2017-Sep-14 01:30N 45°03' E 012°51'611.1
2017-Sep-14 00:59N 44°58' E 012°55'511.2
2017-Sep-14 00:30N 44°53' E 012°57'611.1
2017-Sep-14 00:00N 44°48' E 013°00'611.2
2017-Sep-13 23:30N 44°43' E 013°03'611.6
2017-Sep-13 23:00N 44°37' E 013°06'611.8
2017-Sep-13 22:30N 44°32' E 013°09'611.7
2017-Sep-13 22:00N 44°26' E 013°12'911.4
2017-Sep-13 21:13N 44°18' E 013°17'4011.3
2017-Sep-13 17:40N 43°52' E 013°59'211.6
2017-Sep-13 17:30N 43°51' E 014°02'811.5
2017-Sep-13 16:50N 43°46' E 014°10'611.6
2017-Sep-13 16:21N 43°42' E 014°16'412.1
2017-Sep-13 15:59N 43°40' E 014°21'611.9
2017-Sep-13 15:30N 43°36' E 014°27'611.6
2017-Sep-13 15:00N 43°32' E 014°33'57712.5
2017-Sep-11 16:43N 36°45' E 023°28'516.8
2017-Sep-11 16:26N 36°49' E 023°31'817.6
2017-Sep-11 16:00N 36°56' E 023°36'816.8
2017-Sep-11 15:30N 37°04' E 023°41'816.6
2017-Sep-11 15:00N 37°10' E 023°46'1216.3
2017-Sep-11 14:16N 37°21' E 023°54'  

Dump ship's entire track history